Flight Track Log - Related Links

Times and Time Zones

All times are in EDT time to prevent confusion due to time zone crossing. See the GJS3710 flight status page for this flight to view local times or setup timezone preferences in your user account.

Time Position Orientation Groundspeed Altitude Reporting Facility
EDT Latitude Longitude Course Direction KTS MPH feet Rate Location/Type
Sun 08:00:10 PM 42.0000 -87.9333 86° East 157 181 1,500  Level Chicago TRACON
Sun 08:01:10 PM 42.0500 -87.9333 360° North 210 242 3,300 1,947 Climbing Chicago TRACON
Sun 08:02:04 PM 42.1000 -87.8833 37° Northeast 269 310 5,200 2,250 Climbing Chicago TRACON
Sun 08:02:30 PM 42.1206 -87.8658 32° Northeast 268 308 6,300 2,659 Climbing Chicago Center
Sun 08:03:00 PM 42.1894 -87.2821 66° East  Level FlightAware Approximate
Sun 08:03:32 PM 42.1828 -87.7967 39° Northeast 288 331 9,100  Level Chicago Center
Sun 08:04:00 PM 42.2426 -87.1224 66° East  Level FlightAware Approximate
Sun 08:04:34 PM 42.2117 -87.6944 69° East 305 351 11,800  Level Chicago Center
Sun 08:05:00 PM 42.2689 -86.9541 86° East  Level FlightAware Approximate
Sun 08:05:36 PM 42.2228 -87.5681 83° East 333 383 14,100  Level Chicago Center
Sun 08:06:38 PM 42.2408 -87.4131 81° East 350 403 15,300 1,306 Climbing Chicago Center
Sun 08:07:40 PM 42.2567 -87.2683 82° East 386 444 16,800 1,548 Climbing Chicago Center
Sun 08:08:42 PM 42.2728 -87.1139 82° East 414 476 18,500 1,694 Climbing Chicago Center
Sun 08:09:44 PM 42.2853 -86.9547 84° East 426 490 20,300 1,645 Climbing Chicago Center
Sun 08:10:46 PM 42.2903 -86.7869 88° East 441 507 21,900 1,403 Climbing Chicago Center
Sun 08:11:48 PM 42.2969 -86.6139 87° East 455 524 23,200 1,403 Climbing Chicago Center
Sun 08:12:50 PM 42.3036 -86.4111 87° East 472 543 24,800 1,258 Climbing Chicago Center
Sun 08:13:52 PM 42.3094 -86.2319 87° East 479 551 25,800 968 Climbing Chicago Center
Sun 08:14:54 PM 42.3142 -86.0436 88° East 501 577 26,800 968 Climbing Chicago Center
Sun 08:15:56 PM 42.3117 -85.8525 91° East 512 589 27,800 1,104 Climbing Chicago Center
Sun 08:16:59 PM 42.3092 -85.6217 91° East 519 597 29,100 1,104 Climbing Chicago Center
Sun 08:18:01 PM 42.3069 -85.4242 91° East 526 605 30,100 968 Climbing Chicago Center
Sun 08:19:03 PM 42.3033 -85.2261 91° East 530 610 31,100 1,016 Climbing Chicago Center
Sun 08:20:05 PM 42.3014 -85.0283 91° East 529 609 32,200 1,065 Climbing Chicago Center
Sun 08:21:07 PM 42.2972 -84.8333 92° East 527 606 33,300 1,065 Climbing Chicago Center
Sun 08:22:09 PM 42.2906 -84.5994 92° East 523 602 34,400 823 Climbing Chicago Center
Sun 08:23:11 PM 42.2969 -84.4039 87° East 524 603 35,000 290 Climbing Chicago Center
Sun 08:24:13 PM 42.3258 -84.2067 79° East 535 616 35,000  Level Chicago Center
Sun 08:25:07 PM 42.3481 -84.0333 80° East 526 605 35,000  Level Cleveland Center
Sun 08:26:07 PM 42.3744 -83.8381 80° East 531 611 35,000  Level Cleveland Center
Sun 08:27:07 PM 42.4028 -83.6425 79° East 531 611 35,000  Level Cleveland Center
Sun 08:28:07 PM 42.4100 -83.4461 87° East 524 603 35,000  Level Cleveland Center
Sun 08:29:07 PM 42.4189 -83.2467 86° East 519 597 35,000  Level Cleveland Center
Sun 08:30:07 PM 42.4281 -83.0219 87° East 530 610 35,000  Level Cleveland Center
Sun 08:31:07 PM 42.4342 -82.8225 88° East 535 616 35,000  Level Cleveland Center
Sun 08:32:07 PM 42.4400 -82.6175 88° East 535 616 35,000  Level Cleveland Center
Sun 08:33:07 PM 42.4456 -82.4122 88° East 535 616 35,000  Level Cleveland Center
Sun 08:34:07 PM 42.4508 -82.2097 88° East 535 616 35,000  Level Cleveland Center
Sun 08:35:07 PM 42.4572 -82.0467 87° East 535 616 35,000  Level Cleveland Center
Sun 08:36:07 PM 42.4619 -81.8019 88° East 542 624 35,000  Level Cleveland Center
Sun 08:37:07 PM 42.4661 -81.5992 88° East 537 618 35,000  Level Cleveland Center
Sun 08:38:07 PM 42.4697 -81.3939 89° East 542 624 35,000  Level Cleveland Center
Sun 08:39:07 PM 42.4753 -81.1911 88° East 537 618 35,000  Level Cleveland Center
Sun 08:40:07 PM 42.4783 -80.9858 89° East 532 612 35,000  Level Cleveland Center
Sun 08:41:07 PM 42.4789 -80.8000 90° East 540 621 35,000  Level Cleveland Center
Sun 08:42:07 PM 42.4811 -80.5972 89° East 540 621 35,000  Level Cleveland Center
Sun 08:43:07 PM 42.4850 -80.3917 88° East 540 621 35,000  Level Cleveland Center
Sun 08:44:07 PM 42.4867 -80.1861 89° East 545 627 35,000  Level Cleveland Center
Sun 08:45:07 PM 42.4919 -79.9750 88° East 551 634 35,000  Level Cleveland Center
Sun 08:46:07 PM 42.4950 -79.7694 89° East 551 634 35,000  Level Cleveland Center
Sun 08:47:07 PM 42.4933 -79.5639 91° East 551 634 35,000  Level Cleveland Center
Sun 08:48:07 PM 42.4953 -79.3556 89° East 551 634 35,000  Level Cleveland Center
Sun 08:49:07 PM 42.5014 -79.1469 88° East 551 634 35,000  Level Cleveland Center
Sun 08:50:07 PM 42.5153 -78.9411 85° East 551 634 35,000  Level Cleveland Center
Sun 08:51:07 PM 42.5289 -78.7322 85° East 551 634 35,000  Level Cleveland Center
Sun 08:52:07 PM 42.5439 -78.5258 84° East 557 641 35,000 -250 Level Cleveland Center
Sun 08:53:07 PM 42.5567 -78.3169 85° East 557 641 34,500 -750 Descending Cleveland Center
Sun 08:54:07 PM 42.5692 -78.1078 85° East 557 641 33,500 -1,000 Descending Cleveland Center
Sun 08:55:07 PM 42.5814 -77.9042 85° East 557 641 32,500 -1,039 Descending Cleveland Center
Sun 08:57:06 PM 42.6036 -77.4706 86° East 550 633 30,400 -1,039 Descending Boston Center
Sun 08:58:06 PM 42.6147 -77.2683 86° East 545 627 29,400 -700 Descending Boston Center
Sun 08:59:06 PM 42.6269 -77.0717 85° East 534 615 29,000 -200 Descending Boston Center
Sun 09:00:06 PM 42.6369 -76.8747 86° East 524 603 29,000  Level Boston Center
Sun 09:01:18 PM 42.6478 -76.6411 86° East 517 595 29,000  Level Boston Center
Sun 09:02:18 PM 42.6569 -76.4494 86° East 512 589 29,000  Level Boston Center
Sun 09:03:18 PM 42.6656 -76.2581 86° East 512 589 29,000  Level Boston Center
Sun 09:04:18 PM 42.6761 -76.0636 86° East 512 589 29,000  Level Boston Center
Sun 09:05:18 PM 42.6822 -75.8692 87° East 512 589 29,000 -50 Level Boston Center
Sun 09:06:18 PM 42.6919 -75.6747 86° East 512 589 28,900 -1,250 Descending Boston Center
Sun 09:07:18 PM 42.6994 -75.4858 87° East 512 589 26,500 -2,850 Descending Boston Center
Sun 09:08:18 PM 42.7042 -75.2994 88° East 501 577 23,200 -3,200 Descending Boston Center
Sun 09:09:18 PM 42.7108 -75.1161 87° East 493 567 20,100 -3,150 Descending Boston Center
Sun 09:10:18 PM 42.7186 -74.9469 86° East 476 548 16,900 -3,259 Descending Boston Center
Sun 09:10:39 PM 42.7200 -74.8931 88° East 441 507 15,700 -3,231 Descending Boston Center
Sun 09:11:10 PM 42.7217 -74.8056 88° East 427 491 14,100 -3,033 Descending Boston Center
Sun 09:12:10 PM 42.7269 -74.6503 87° East 410 472 11,100 -1,537 Descending Boston Center
Sun 09:13:11 PM 42.7339 -74.5119 86° East 363 418 11,000 -443 Descending Boston Center
Sun 09:14:12 PM 42.7358 -74.3906 89° East 310 357 10,200 -1,140 Descending Boston Center
Sun 09:15:12 PM 42.7378 -74.2719 89° East 305 351 8,700 -1,587 Descending Boston Center
Sun 09:16:13 PM 42.7419 -74.1506 87° East 299 344 7,000 -1,475 Descending Boston Center
Sun 09:17:14 PM 42.7433 -74.0403 89° East 295 339 5,700 -1,240 Descending Boston Center
Sun 09:18:14 PM 42.7450 -73.9300 89° East 283 326 4,500 -1,140 Descending Boston Center
Sun 09:19:15 PM 42.7000 -73.8583 130° Southeast 243 280 3,400 -1,082 Descending Boston Center
Sun 09:20:16 PM 42.6525 -73.8233 152° Southeast 198 228 2,300 -1,082 Descending Boston Center

Login

Don't have an account? Register now (free) for customized features, flight alerts, and more!